createdAt,value
2022-09-06T00:00:58.088Z,1005.14
2022-09-06T00:01:58.114Z,1005.11
2022-09-06T00:02:58.205Z,1005.15
2022-09-06T00:03:58.145Z,1005.2
2022-09-06T00:04:58.071Z,1005.21
2022-09-06T00:05:58.098Z,1005.18
2022-09-06T00:06:58.107Z,1005.21
2022-09-06T00:07:58.132Z,1005.21
2022-09-06T00:08:58.220Z,1005.14
2022-09-06T00:09:58.128Z,1005.21
2022-09-06T00:11:04.212Z,1005.17
2022-09-06T00:11:58.087Z,1005.2
2022-09-06T00:12:58.135Z,1005.17
2022-09-06T00:13:58.317Z,1005.16
2022-09-06T00:14:58.103Z,1005.15
2022-09-06T00:15:58.122Z,1005.16
2022-09-06T00:16:58.352Z,1005.17
2022-09-06T00:17:58.164Z,1005.15
2022-09-06T00:18:58.154Z,1005.14
2022-09-06T00:19:58.295Z,1005.13
2022-09-06T00:20:58.095Z,1005.14
2022-09-06T00:21:58.262Z,1005.12
2022-09-06T00:22:58.142Z,1005.12
2022-09-06T00:23:58.087Z,1005.14
2022-09-06T00:24:58.083Z,1005.16
2022-09-06T00:25:58.096Z,1005.13
2022-09-06T00:26:58.110Z,1005.09
2022-09-06T00:27:58.114Z,1005.1
2022-09-06T00:28:58.100Z,1005.11
2022-09-06T00:29:58.151Z,1005.09
2022-09-06T00:30:58.148Z,1005.08
2022-09-06T00:31:58.147Z,1005.11
2022-09-06T00:32:58.241Z,1005.08
2022-09-06T00:33:58.063Z,1005.09
2022-09-06T00:34:58.078Z,1005.07
2022-09-06T00:35:58.102Z,1005.09
2022-09-06T00:36:58.080Z,1005.09
2022-09-06T00:37:58.193Z,1005.08
2022-09-06T00:38:58.069Z,1005.09
2022-09-06T00:39:58.338Z,1005.01
2022-09-06T00:40:58.119Z,1005.03
2022-09-06T00:41:58.389Z,1005.01
2022-09-06T00:42:58.301Z,1004.92
2022-09-06T00:43:58.601Z,1004.95
2022-09-06T00:44:58.263Z,1004.92
2022-09-06T00:45:58.186Z,1004.92
2022-09-06T00:46:58.674Z,1004.95
2022-09-06T00:47:58.166Z,1004.92
2022-09-06T00:48:58.483Z,1004.93
2022-09-06T00:49:58.820Z,1004.93
2022-09-06T00:50:59.055Z,1004.93
2022-09-06T00:51:58.801Z,1004.94
2022-09-06T00:52:58.565Z,1004.9
2022-09-06T00:53:58.265Z,1004.87
2022-09-06T00:54:58.542Z,1004.88
2022-09-06T00:55:58.357Z,1004.87
2022-09-06T00:56:58.669Z,1004.87
2022-09-06T00:57:58.399Z,1004.84
2022-09-06T00:58:58.541Z,1004.85
2022-09-06T00:59:58.768Z,1004.82
2022-09-06T01:00:58.520Z,1004.83
2022-09-06T01:01:58.693Z,1004.85
2022-09-06T01:02:58.355Z,1004.8
2022-09-06T01:03:58.609Z,1004.83
2022-09-06T01:04:58.254Z,1004.8
2022-09-06T01:05:58.680Z,1004.79
2022-09-06T01:06:58.441Z,1004.8
2022-09-06T01:07:58.201Z,1004.76
2022-09-06T01:08:58.466Z,1004.75
2022-09-06T01:09:58.095Z,1004.77
2022-09-06T01:10:58.303Z,1004.73
2022-09-06T01:11:58.297Z,1004.69
2022-09-06T01:12:58.190Z,1004.74
2022-09-06T01:13:58.305Z,1004.69
2022-09-06T01:14:58.127Z,1004.69
2022-09-06T01:15:58.294Z,1004.69
2022-09-06T01:16:58.081Z,1004.65
2022-09-06T01:17:58.463Z,1004.63
2022-09-06T01:18:58.095Z,1004.67
2022-09-06T01:19:58.302Z,1004.63
2022-09-06T01:20:58.268Z,1004.66
2022-09-06T01:21:58.110Z,1004.65
2022-09-06T01:22:58.182Z,1004.65
2022-09-06T01:23:58.340Z,1004.64
2022-09-06T01:24:58.595Z,1004.62
2022-09-06T01:25:58.195Z,1004.62
2022-09-06T01:26:58.089Z,1004.65
2022-09-06T01:27:58.093Z,1004.63
2022-09-06T01:28:58.092Z,1004.65
2022-09-06T01:29:58.099Z,1004.63
2022-09-06T01:30:58.169Z,1004.6
2022-09-06T01:31:58.103Z,1004.62
2022-09-06T01:32:58.111Z,1004.62
2022-09-06T01:33:58.109Z,1004.6
2022-09-06T01:34:58.103Z,1004.65
2022-09-06T01:35:58.111Z,1004.6
2022-09-06T01:37:10.160Z,1004.63
2022-09-06T01:37:58.086Z,1004.61
2022-09-06T01:38:58.080Z,1004.64
2022-09-06T01:39:58.121Z,1004.6
2022-09-06T01:40:58.093Z,1004.65
2022-09-06T01:41:58.087Z,1004.6
2022-09-06T01:42:58.100Z,1004.59
2022-09-06T01:43:58.096Z,1004.57
2022-09-06T01:44:58.097Z,1004.6
2022-09-06T01:45:58.155Z,1004.57
2022-09-06T01:46:58.092Z,1004.57
2022-09-06T01:47:58.200Z,1004.58
2022-09-06T01:48:58.105Z,1004.57
2022-09-06T01:49:58.088Z,1004.59
2022-09-06T01:50:58.087Z,1004.57
2022-09-06T01:51:58.090Z,1004.54
2022-09-06T01:52:58.093Z,1004.57
2022-09-06T01:53:58.118Z,1004.57
2022-09-06T01:54:58.164Z,1004.6
2022-09-06T01:55:58.093Z,1004.56
2022-09-06T01:56:58.096Z,1004.53
2022-09-06T01:57:58.090Z,1004.58
2022-09-06T01:58:58.096Z,1004.55
2022-09-06T01:59:58.087Z,1004.55
2022-09-06T02:00:58.108Z,1004.59
2022-09-06T02:01:58.140Z,1004.59
2022-09-06T02:02:58.157Z,1004.57
2022-09-06T02:03:58.103Z,1004.6
2022-09-06T02:04:58.101Z,1004.61
2022-09-06T02:05:58.214Z,1004.61
2022-09-06T02:06:58.097Z,1004.59
2022-09-06T02:07:58.236Z,1004.6
2022-09-06T02:08:58.223Z,1004.61
2022-09-06T02:09:58.098Z,1004.6
2022-09-06T02:10:58.088Z,1004.63
2022-09-06T02:11:58.102Z,1004.67
2022-09-06T02:12:58.094Z,1004.64
2022-09-06T02:13:58.095Z,1004.63
2022-09-06T02:14:58.113Z,1004.65
2022-09-06T02:15:58.099Z,1004.67
2022-09-06T02:16:58.221Z,1004.66
2022-09-06T02:17:58.105Z,1004.68
2022-09-06T02:18:58.208Z,1004.67
2022-09-06T02:19:58.200Z,1004.69
2022-09-06T02:20:58.093Z,1004.71
2022-09-06T02:21:58.082Z,1004.77
2022-09-06T02:22:58.187Z,1004.81
2022-09-06T02:23:59.122Z,1004.93
2022-09-06T02:24:58.393Z,1005.29
2022-09-06T02:25:58.143Z,1005.54
2022-09-06T02:26:58.988Z,1005.59
2022-09-06T02:27:58.490Z,1005.53
2022-09-06T02:28:59.108Z,1005.61
2022-09-06T02:29:58.113Z,1005.49
2022-09-06T02:30:58.586Z,1005.33
2022-09-06T02:31:58.537Z,1005.27
2022-09-06T02:32:59.128Z,1005.3
2022-09-06T02:33:58.510Z,1005.36
2022-09-06T02:34:58.722Z,1005.43
2022-09-06T02:35:59.056Z,1005.45
2022-09-06T02:36:59.248Z,1005.45
2022-09-06T02:37:58.934Z,1005.4
2022-09-06T02:38:58.996Z,1005.4
2022-09-06T02:39:58.467Z,1005.38
2022-09-06T02:40:58.127Z,1005.43
2022-09-06T02:41:58.273Z,1005.43
2022-09-06T02:42:58.096Z,1005.43
2022-09-06T02:43:58.096Z,1005.43
2022-09-06T02:44:58.112Z,1005.36
2022-09-06T02:45:58.149Z,1005.38
2022-09-06T02:47:01.618Z,1005.38
2022-09-06T02:47:58.128Z,1005.36
2022-09-06T02:48:58.091Z,1005.36
2022-09-06T02:49:58.124Z,1005.37
2022-09-06T02:50:58.127Z,1005.37
2022-09-06T02:51:58.115Z,1005.31
2022-09-06T02:52:58.338Z,1005.34
2022-09-06T02:53:58.115Z,1005.3
2022-09-06T02:54:58.110Z,1005.3
2022-09-06T02:55:58.105Z,1005.29
2022-09-06T02:56:58.118Z,1005.28
2022-09-06T02:57:58.117Z,1005.25
2022-09-06T02:58:58.124Z,1005.2
2022-09-06T02:59:58.110Z,1005.18
2022-09-06T03:00:58.209Z,1005.14
2022-09-06T03:01:58.180Z,1005.17
2022-09-06T03:02:58.139Z,1005.12
2022-09-06T03:03:58.124Z,1005.09
2022-09-06T03:04:58.113Z,1005.04
2022-09-06T03:05:58.113Z,1005.04
2022-09-06T03:06:58.101Z,1005.05
2022-09-06T03:07:58.113Z,1005.04
2022-09-06T03:08:58.133Z,1005.07
2022-09-06T03:09:58.116Z,1005.03
2022-09-06T03:10:58.116Z,1005.01
2022-09-06T03:11:58.122Z,1005.02
2022-09-06T03:12:58.135Z,1004.98
2022-09-06T03:13:58.132Z,1004.89
2022-09-06T03:14:58.126Z,1004.87
2022-09-06T03:15:58.119Z,1004.86
2022-09-06T03:16:58.149Z,1004.85
2022-09-06T03:17:58.117Z,1004.88
2022-09-06T03:18:58.181Z,1004.89
2022-09-06T03:19:58.113Z,1004.9
2022-09-06T03:20:58.135Z,1004.92
2022-09-06T03:21:58.142Z,1004.9
2022-09-06T03:22:58.140Z,1004.91
2022-09-06T03:23:58.295Z,1004.83
2022-09-06T03:24:58.387Z,1004.82
2022-09-06T03:25:58.186Z,1004.8
2022-09-06T03:26:58.123Z,1004.8
2022-09-06T03:27:58.448Z,1004.78
2022-09-06T03:28:58.178Z,1004.8
2022-09-06T03:29:58.121Z,1004.75
2022-09-06T03:30:58.412Z,1004.77
2022-09-06T03:31:58.146Z,1004.76
2022-09-06T03:33:02.527Z,1004.75
2022-09-06T03:33:58.467Z,1004.75
2022-09-06T03:34:58.272Z,1004.73
2022-09-06T03:35:58.146Z,1004.71
2022-09-06T03:36:58.143Z,1004.73
2022-09-06T03:37:58.135Z,1004.67
2022-09-06T03:38:58.162Z,1004.68
2022-09-06T03:39:58.185Z,1004.66
2022-09-06T03:40:58.133Z,1004.69
2022-09-06T03:41:58.140Z,1004.65
2022-09-06T03:42:58.151Z,1004.62
2022-09-06T03:43:58.254Z,1004.64
2022-09-06T03:44:58.179Z,1004.66
2022-09-06T03:45:58.375Z,1004.71
2022-09-06T03:46:58.209Z,1004.72
2022-09-06T03:47:58.274Z,1004.76
2022-09-06T03:48:58.373Z,1004.77
2022-09-06T03:49:58.155Z,1004.75
2022-09-06T03:50:58.174Z,1004.79
2022-09-06T03:51:58.431Z,1004.82
2022-09-06T03:52:58.232Z,1004.85
2022-09-06T03:53:58.510Z,1004.81
2022-09-06T03:54:58.309Z,1004.84
2022-09-06T03:55:58.454Z,1004.83
2022-09-06T03:56:58.364Z,1004.83
2022-09-06T03:58:00.133Z,1004.78
2022-09-06T03:58:59.136Z,1004.82
2022-09-06T03:59:58.320Z,1004.8
2022-09-06T04:00:58.170Z,1004.77
2022-09-06T04:01:58.192Z,1004.75
2022-09-06T04:03:04.121Z,1004.76
2022-09-06T04:03:58.174Z,1004.74
2022-09-06T04:04:58.185Z,1004.8
2022-09-06T04:05:58.183Z,1004.83
2022-09-06T04:06:58.157Z,1004.85
2022-09-06T04:07:58.153Z,1004.89
2022-09-06T04:08:58.176Z,1004.9
2022-09-06T04:09:58.450Z,1004.9
2022-09-06T04:10:58.165Z,1004.91
2022-09-06T04:11:58.164Z,1004.9
2022-09-06T04:12:58.525Z,1004.87
2022-09-06T04:13:58.221Z,1004.85
2022-09-06T04:14:58.335Z,1004.84
2022-09-06T04:15:58.316Z,1004.84
2022-09-06T04:16:58.672Z,1004.82
2022-09-06T04:17:58.379Z,1004.81
2022-09-06T04:18:58.584Z,1004.82
2022-09-06T04:19:58.687Z,1004.8
2022-09-06T04:20:58.198Z,1004.84
2022-09-06T04:21:58.700Z,1004.87
2022-09-06T04:22:58.707Z,1004.85
2022-09-06T04:23:58.247Z,1004.85
2022-09-06T04:24:58.264Z,1004.83
2022-09-06T04:26:00.467Z,1004.86
2022-09-06T04:26:58.349Z,1004.84
2022-09-06T04:27:58.490Z,1004.89
2022-09-06T04:28:58.280Z,1004.89
2022-09-06T04:29:58.187Z,1004.86
2022-09-06T04:31:04.530Z,1004.92
2022-09-06T04:31:58.169Z,1004.91
2022-09-06T04:32:58.351Z,1004.98
2022-09-06T04:33:58.275Z,1005
2022-09-06T04:34:58.288Z,1005.02
2022-09-06T04:35:58.327Z,1005.03
2022-09-06T04:36:58.366Z,1005.04
2022-09-06T04:37:58.285Z,1005.02
2022-09-06T04:38:58.481Z,1005.06
2022-09-06T04:39:58.207Z,1005.08
2022-09-06T04:40:58.208Z,1005.13
2022-09-06T04:41:58.233Z,1005.07
2022-09-06T04:42:58.414Z,1005.09
2022-09-06T04:43:58.193Z,1005.08
2022-09-06T04:44:58.202Z,1005.1
2022-09-06T04:45:58.254Z,1005.11
2022-09-06T04:46:59.227Z,1005.1
2022-09-06T04:47:58.220Z,1005.1
2022-09-06T04:48:58.193Z,1005.09
2022-09-06T04:49:58.322Z,1005.09
2022-09-06T04:50:58.217Z,1005.08
2022-09-06T04:51:58.219Z,1005.06
2022-09-06T04:52:58.217Z,1005.07
2022-09-06T04:53:58.296Z,1005.04
2022-09-06T04:54:58.226Z,1005.07
2022-09-06T04:55:58.213Z,1005.06
2022-09-06T04:56:58.204Z,1005.07
2022-09-06T04:57:58.211Z,1005.07
2022-09-06T04:58:58.223Z,1005.1
2022-09-06T04:59:58.206Z,1005.06
2022-09-06T05:00:58.276Z,1005.08
2022-09-06T05:01:58.240Z,1005.1
2022-09-06T05:02:58.230Z,1005.11
2022-09-06T05:04:01.125Z,1005.14
2022-09-06T05:04:58.220Z,1005.14
2022-09-06T05:05:58.239Z,1005.13
2022-09-06T05:06:58.214Z,1005.15
2022-09-06T05:07:58.622Z,1005.14
2022-09-06T05:08:58.975Z,1005.12
2022-09-06T05:09:58.400Z,1005.09
2022-09-06T05:10:58.403Z,1005.1
2022-09-06T05:11:58.361Z,1005.08
2022-09-06T05:12:58.427Z,1005.06
2022-09-06T05:13:58.510Z,1005.05
2022-09-06T05:14:58.554Z,1005.04
2022-09-06T05:15:58.551Z,1005.04
2022-09-06T05:16:58.458Z,1005.04
2022-09-06T05:17:58.558Z,1005.03
2022-09-06T05:18:58.436Z,1005.04
2022-09-06T05:19:58.423Z,1005.06
2022-09-06T05:20:58.443Z,1005.11
2022-09-06T05:21:58.420Z,1005.09
2022-09-06T05:22:58.468Z,1005.16
2022-09-06T05:24:01.104Z,1005.19
2022-09-06T05:24:58.442Z,1005.16
2022-09-06T05:25:58.694Z,1005.2
2022-09-06T05:26:58.434Z,1005.23
2022-09-06T05:27:58.446Z,1005.23
2022-09-06T05:28:58.428Z,1005.25
2022-09-06T05:29:58.444Z,1005.23
2022-09-06T05:30:58.432Z,1005.21
2022-09-06T05:31:58.456Z,1005.18
2022-09-06T05:32:58.433Z,1005.17
2022-09-06T05:33:58.440Z,1005.15
2022-09-06T05:34:58.454Z,1005.15
2022-09-06T05:35:58.449Z,1005.14
2022-09-06T05:36:58.722Z,1005.15
2022-09-06T05:37:58.464Z,1005.21
2022-09-06T05:38:58.471Z,1005.17
2022-09-06T05:39:58.530Z,1005.19
2022-09-06T05:40:59.127Z,1005.19
2022-09-06T05:41:59.543Z,1005.18
2022-09-06T05:42:59.127Z,1005.2
2022-09-06T05:43:58.900Z,1005.18
2022-09-06T05:44:58.509Z,1005.21
2022-09-06T05:45:59.231Z,1005.24
2022-09-06T05:46:58.926Z,1005.24
2022-09-06T05:47:58.738Z,1005.21
2022-09-06T05:48:58.858Z,1005.29
2022-09-06T05:49:59.463Z,1005.29
2022-09-06T05:50:58.793Z,1005.29
2022-09-06T05:51:59.270Z,1005.31
2022-09-06T05:52:59.002Z,1005.32
2022-09-06T05:53:58.260Z,1005.33
2022-09-06T05:54:58.467Z,1005.38
2022-09-06T05:55:58.551Z,1005.31
2022-09-06T05:56:58.272Z,1005.31
2022-09-06T05:57:58.271Z,1005.29
2022-09-06T05:58:58.281Z,1005.27
2022-09-06T05:59:58.245Z,1005.31
2022-09-06T06:00:58.286Z,1005.36
2022-09-06T06:01:58.308Z,1005.25
2022-09-06T06:02:58.259Z,1005.28
2022-09-06T06:03:58.293Z,1005.29
2022-09-06T06:04:58.272Z,1005.26
2022-09-06T06:05:58.262Z,1005.35
2022-09-06T06:06:58.274Z,1005.39
2022-09-06T06:07:58.284Z,1005.4
2022-09-06T06:08:58.276Z,1005.43
2022-09-06T06:09:58.287Z,1005.41
2022-09-06T06:10:58.271Z,1005.41
2022-09-06T06:11:58.280Z,1005.4
2022-09-06T06:12:58.259Z,1005.37
2022-09-06T06:13:58.291Z,1005.37
2022-09-06T06:14:58.257Z,1005.35
2022-09-06T06:15:58.291Z,1005.35
2022-09-06T06:16:58.291Z,1005.37
2022-09-06T06:17:58.284Z,1005.34
2022-09-06T06:18:58.313Z,1005.35
2022-09-06T06:19:58.291Z,1005.31
2022-09-06T06:20:58.521Z,1005.29
2022-09-06T06:21:58.280Z,1005.32
2022-09-06T06:22:58.286Z,1005.31
2022-09-06T06:23:58.285Z,1005.29
2022-09-06T06:24:58.277Z,1005.28
2022-09-06T06:25:58.333Z,1005.3
2022-09-06T06:26:58.290Z,1005.29
2022-09-06T06:27:58.291Z,1005.32
2022-09-06T06:28:58.305Z,1005.32
2022-09-06T06:29:58.284Z,1005.33
2022-09-06T06:30:58.545Z,1005.36
2022-09-06T06:31:58.444Z,1005.34
2022-09-06T06:32:58.282Z,1005.36
2022-09-06T06:33:58.275Z,1005.37
2022-09-06T06:34:58.282Z,1005.33
2022-09-06T06:35:58.294Z,1005.35
2022-09-06T06:36:58.301Z,1005.33
2022-09-06T06:37:58.345Z,1005.34
2022-09-06T06:38:58.318Z,1005.38
2022-09-06T06:39:58.390Z,1005.34
2022-09-06T06:41:07.384Z,1005.36
2022-09-06T06:41:58.336Z,1005.35
2022-09-06T06:42:58.269Z,1005.36
2022-09-06T06:43:58.360Z,1005.31
2022-09-06T06:44:58.320Z,1005.36
2022-09-06T06:45:58.435Z,1005.34
2022-09-06T06:46:58.381Z,1005.34
2022-09-06T06:47:58.645Z,1005.34
2022-09-06T06:48:58.575Z,1005.33
2022-09-06T06:49:58.452Z,1005.36
2022-09-06T06:50:58.308Z,1005.34
2022-09-06T06:51:58.352Z,1005.36
2022-09-06T06:52:58.307Z,1005.3
2022-09-06T06:53:58.303Z,1005.3
2022-09-06T06:54:58.331Z,1005.3
2022-09-06T06:55:58.307Z,1005.26
2022-09-06T06:56:58.314Z,1005.27
2022-09-06T06:57:58.308Z,1005.26
2022-09-06T06:58:58.357Z,1005.26
2022-09-06T06:59:58.315Z,1005.23
2022-09-06T07:00:58.564Z,1005.28
2022-09-06T07:01:58.401Z,1005.28
2022-09-06T07:02:58.458Z,1005.28
2022-09-06T07:03:58.295Z,1005.28
2022-09-06T07:04:58.319Z,1005.26
2022-09-06T07:07:35.569Z,1005.13
2022-09-06T07:07:58.357Z,1005.12
2022-09-06T07:08:58.337Z,1005.1
2022-09-06T07:10:34.177Z,1005.11
2022-09-06T07:10:58.309Z,1005.07
2022-09-06T07:11:58.351Z,1005.06
2022-09-06T07:12:58.549Z,1005.02
2022-09-06T07:13:58.330Z,1005.02
2022-09-06T07:14:58.352Z,1004.94
2022-09-06T07:15:58.339Z,1004.99
2022-09-06T07:16:58.496Z,1004.99
2022-09-06T07:17:58.327Z,1004.97
2022-09-06T07:18:58.320Z,1005
2022-09-06T07:20:14.709Z,1005
2022-09-06T07:22:01.459Z,1005.01
2022-09-06T07:24:58.338Z,1005.01
2022-09-06T07:25:58.370Z,1004.96
2022-09-06T07:27:59.082Z,1004.97
2022-09-06T07:28:58.322Z,1004.95
2022-09-06T07:29:58.368Z,1004.97
2022-09-06T07:30:58.719Z,1004.93
2022-09-06T07:32:58.533Z,1004.94
2022-09-06T07:33:58.821Z,1004.99
2022-09-06T07:34:59.139Z,1004.96
2022-09-06T07:35:58.354Z,1004.96
2022-09-06T07:36:58.469Z,1004.96
2022-09-06T07:37:58.736Z,1004.95
2022-09-06T07:38:58.426Z,1004.95
2022-09-06T07:39:58.400Z,1004.94
2022-09-06T07:40:58.484Z,1005
2022-09-06T07:41:58.611Z,1004.97
2022-09-06T07:42:58.344Z,1004.99
2022-09-06T07:43:58.379Z,1004.92
2022-09-06T07:44:58.338Z,1004.95
2022-09-06T07:45:58.832Z,1004.92
2022-09-06T07:47:59.398Z,1004.92
2022-09-06T07:48:58.376Z,1004.92
2022-09-06T07:51:01.459Z,1004.91
2022-09-06T07:51:58.570Z,1004.89
2022-09-06T07:54:28.619Z,1004.92
2022-09-06T07:54:58.634Z,1004.9
2022-09-06T07:55:58.369Z,1004.93
2022-09-06T07:56:58.521Z,1004.88
2022-09-06T07:57:58.473Z,1004.91
2022-09-06T07:58:58.366Z,1004.9
2022-09-06T07:59:58.356Z,1004.87
2022-09-06T08:00:58.448Z,1004.84
2022-09-06T08:01:58.390Z,1004.81
2022-09-06T08:02:58.364Z,1004.83
2022-09-06T08:03:58.375Z,1004.86
2022-09-06T08:04:58.406Z,1004.82
2022-09-06T08:08:58.787Z,1004.79
2022-09-06T08:09:58.366Z,1004.8
2022-09-06T08:10:58.348Z,1004.78
2022-09-06T08:11:58.362Z,1004.78
2022-09-06T08:12:58.356Z,1004.76
2022-09-06T08:13:58.359Z,1004.76
2022-09-06T08:14:58.363Z,1004.76
2022-09-06T08:15:58.417Z,1004.75
2022-09-06T08:16:58.374Z,1004.81
2022-09-06T08:17:58.391Z,1004.77
2022-09-06T08:18:58.372Z,1004.75
2022-09-06T08:19:58.430Z,1004.76
2022-09-06T08:20:58.361Z,1004.8
2022-09-06T08:21:58.384Z,1004.77
2022-09-06T08:22:58.371Z,1004.79
2022-09-06T08:23:58.375Z,1004.75
2022-09-06T08:24:58.375Z,1004.77
2022-09-06T08:25:58.379Z,1004.76
2022-09-06T08:26:58.356Z,1004.78
2022-09-06T08:27:58.382Z,1004.76
2022-09-06T08:28:58.389Z,1004.73
2022-09-06T08:29:58.382Z,1004.76
2022-09-06T08:30:58.495Z,1004.76
2022-09-06T08:31:58.545Z,1004.77
2022-09-06T08:32:58.382Z,1004.78
2022-09-06T08:33:58.379Z,1004.76
2022-09-06T08:34:58.377Z,1004.77
2022-09-06T08:35:58.391Z,1004.8
2022-09-06T08:36:58.390Z,1004.84
2022-09-06T08:37:58.578Z,1004.79
2022-09-06T08:38:58.952Z,1004.79
2022-09-06T08:39:59.840Z,1004.8
2022-09-06T08:40:58.413Z,1004.77
2022-09-06T08:41:58.677Z,1004.79
2022-09-06T08:42:58.813Z,1004.77
2022-09-06T08:45:00.798Z,1004.79
2022-09-06T08:45:59.293Z,1004.77
2022-09-06T08:46:59.365Z,1004.8
2022-09-06T08:47:58.976Z,1004.77
2022-09-06T08:48:59.374Z,1004.78
2022-09-06T08:49:59.259Z,1004.77
2022-09-06T08:50:59.025Z,1004.74
2022-09-06T08:51:58.793Z,1004.81
2022-09-06T08:53:17.445Z,1004.75
2022-09-06T08:54:00.199Z,1004.76
2022-09-06T08:54:58.708Z,1004.73
2022-09-06T08:55:58.420Z,1004.75
2022-09-06T08:56:58.422Z,1004.7
2022-09-06T08:57:58.573Z,1004.69
2022-09-06T08:58:58.421Z,1004.68
2022-09-06T08:59:58.428Z,1004.67
2022-09-06T09:00:58.825Z,1004.67
2022-09-06T09:01:58.892Z,1004.67
2022-09-06T09:02:58.616Z,1004.63
2022-09-06T09:03:58.853Z,1004.64
2022-09-06T09:04:59.139Z,1004.59
2022-09-06T09:05:58.411Z,1004.59
2022-09-06T09:06:58.631Z,1004.59
2022-09-06T09:07:58.917Z,1004.58
2022-09-06T09:08:58.794Z,1004.54
2022-09-06T09:09:58.526Z,1004.55
2022-09-06T09:10:58.698Z,1004.54
2022-09-06T09:11:58.404Z,1004.52
2022-09-06T09:12:58.428Z,1004.52
2022-09-06T09:13:59.134Z,1004.49
2022-09-06T09:14:58.541Z,1004.51
2022-09-06T09:15:58.535Z,1004.44
2022-09-06T09:16:58.391Z,1004.44
2022-09-06T09:17:58.419Z,1004.43
2022-09-06T09:18:58.394Z,1004.37
2022-09-06T09:19:58.419Z,1004.4
2022-09-06T09:20:58.417Z,1004.39
2022-09-06T09:21:58.401Z,1004.39
2022-09-06T09:22:58.404Z,1004.38
2022-09-06T09:23:58.377Z,1004.41
2022-09-06T09:24:58.468Z,1004.38
2022-09-06T09:25:58.429Z,1004.38
2022-09-06T09:26:58.542Z,1004.36
2022-09-06T09:27:58.395Z,1004.35
2022-09-06T09:28:58.399Z,1004.31
2022-09-06T09:30:58.521Z,1004.29
2022-09-06T09:31:58.487Z,1004.29
2022-09-06T09:32:58.435Z,1004.25
2022-09-06T09:33:58.413Z,1004.24
2022-09-06T09:34:58.400Z,1004.26
2022-09-06T09:35:58.397Z,1004.21
2022-09-06T09:38:10.973Z,1004.18
2022-09-06T09:38:58.412Z,1004.18
2022-09-06T09:39:58.420Z,1004.19
2022-09-06T09:40:58.381Z,1004.15
2022-09-06T09:41:58.358Z,1004.15
2022-09-06T09:42:58.411Z,1004.18
2022-09-06T09:44:04.343Z,1004.14
2022-09-06T09:44:58.421Z,1004.19
2022-09-06T09:45:58.450Z,1004.15
2022-09-06T09:46:58.557Z,1004.17
2022-09-06T09:47:58.400Z,1004.11
2022-09-06T09:48:58.483Z,1004.12
2022-09-06T09:49:58.510Z,1004.1
2022-09-06T09:50:58.380Z,1004.08
2022-09-06T09:51:58.382Z,1004.08
2022-09-06T09:52:58.423Z,1004.13
2022-09-06T09:53:58.473Z,1004.11
2022-09-06T09:54:58.423Z,1004.12
2022-09-06T09:55:58.455Z,1004.1
2022-09-06T09:56:58.418Z,1004.05
2022-09-06T09:57:58.445Z,1004.1
2022-09-06T09:58:58.397Z,1004.05
2022-09-06T09:59:58.437Z,1004.08
2022-09-06T10:00:58.610Z,1004.04
2022-09-06T10:01:58.625Z,1004.05
2022-09-06T10:02:58.407Z,1004.02
2022-09-06T10:04:58.689Z,1004.01
2022-09-06T10:06:04.468Z,1003.98
2022-09-06T10:07:58.415Z,1003.94
2022-09-06T10:08:58.467Z,1004
2022-09-06T10:09:58.377Z,1003.95
2022-09-06T10:10:58.424Z,1003.91
2022-09-06T10:11:58.416Z,1003.96
2022-09-06T10:12:58.419Z,1003.94
2022-09-06T10:13:58.411Z,1003.91
2022-09-06T10:14:59.564Z,1003.91
2022-09-06T10:15:58.430Z,1003.88
2022-09-06T10:16:58.400Z,1003.87
2022-09-06T10:17:58.406Z,1003.81
2022-09-06T10:18:58.402Z,1003.81
2022-09-06T10:19:58.410Z,1003.85
2022-09-06T10:20:58.394Z,1003.79
2022-09-06T10:21:58.487Z,1003.78
2022-09-06T10:22:58.486Z,1003.79
2022-09-06T10:24:28.583Z,1003.76
2022-09-06T10:24:58.424Z,1003.79
2022-09-06T10:25:58.396Z,1003.78
2022-09-06T10:26:58.405Z,1003.74
2022-09-06T10:28:11.551Z,1003.78
2022-09-06T10:28:58.412Z,1003.73
2022-09-06T10:29:58.406Z,1003.77
2022-09-06T10:30:58.446Z,1003.75
2022-09-06T10:31:58.395Z,1003.75
2022-09-06T10:32:58.446Z,1003.74
2022-09-06T10:33:58.599Z,1003.68
2022-09-06T10:34:58.394Z,1003.68
2022-09-06T10:35:58.489Z,1003.65
2022-09-06T10:36:58.076Z,1003.64
2022-09-06T10:37:58.491Z,1003.68
2022-09-06T10:39:04.432Z,1003.66
2022-09-06T10:39:58.455Z,1003.62
2022-09-06T10:40:58.483Z,1003.61
2022-09-06T10:41:58.529Z,1003.6
2022-09-06T10:42:58.546Z,1003.58
2022-09-06T10:43:58.521Z,1003.57
2022-09-06T10:44:58.720Z,1003.61
2022-09-06T10:45:58.506Z,1003.64
2022-09-06T10:46:58.544Z,1003.61
2022-09-06T10:47:58.772Z,1003.65
2022-09-06T10:48:58.778Z,1003.64
2022-09-06T10:49:58.646Z,1003.62
2022-09-06T10:50:58.519Z,1003.62
2022-09-06T10:51:58.706Z,1003.66
2022-09-06T10:52:58.383Z,1003.64
2022-09-06T10:53:58.738Z,1003.61
2022-09-06T10:54:58.519Z,1003.63
2022-09-06T10:56:04.127Z,1003.63
2022-09-06T10:56:58.670Z,1003.64
2022-09-06T10:58:19.279Z,1003.64
2022-09-06T10:59:35.370Z,1003.68
2022-09-06T10:59:58.436Z,1003.64
2022-09-06T11:00:58.413Z,1003.62
2022-09-06T11:01:58.539Z,1003.67
2022-09-06T11:04:12.428Z,1003.63
2022-09-06T11:05:58.491Z,1003.63
2022-09-06T11:06:58.450Z,1003.61
2022-09-06T11:09:01.305Z,1003.6
2022-09-06T11:09:58.426Z,1003.56
2022-09-06T11:10:58.433Z,1003.57
2022-09-06T11:11:58.425Z,1003.54
2022-09-06T11:12:58.127Z,1003.54
2022-09-06T11:14:01.435Z,1003.57
2022-09-06T11:14:58.426Z,1003.61
2022-09-06T11:15:58.399Z,1003.6
2022-09-06T11:16:58.434Z,1003.57
2022-09-06T11:17:58.438Z,1003.6
2022-09-06T11:18:58.450Z,1003.65
2022-09-06T11:19:58.439Z,1003.71
2022-09-06T11:20:58.453Z,1003.66
2022-09-06T11:21:58.112Z,1003.68
2022-09-06T11:22:58.422Z,1003.69
2022-09-06T11:23:58.495Z,1003.71
2022-09-06T11:24:58.350Z,1003.68
2022-09-06T11:25:58.447Z,1003.68
2022-09-06T11:26:58.527Z,1003.64
2022-09-06T11:28:01.128Z,1003.65
2022-09-06T11:28:58.467Z,1003.59
2022-09-06T11:29:58.450Z,1003.57
2022-09-06T11:30:58.617Z,1003.53
2022-09-06T11:32:18.512Z,1003.55
2022-09-06T11:32:58.459Z,1003.55
2022-09-06T11:34:04.119Z,1003.57
2022-09-06T11:34:58.134Z,1003.58
2022-09-06T11:35:58.140Z,1003.55
2022-09-06T11:36:58.461Z,1003.57
2022-09-06T11:37:58.081Z,1003.47
2022-09-06T11:38:58.470Z,1003.56
2022-09-06T11:40:30.857Z,1003.58
2022-09-06T11:40:58.624Z,1003.55
2022-09-06T11:41:58.590Z,1003.54
2022-09-06T11:42:58.537Z,1003.51
2022-09-06T11:43:58.590Z,1003.51
2022-09-06T11:44:58.576Z,1003.54
2022-09-06T11:45:58.676Z,1003.51
2022-09-06T11:46:59.531Z,1003.51
2022-09-06T11:47:58.754Z,1003.55
2022-09-06T11:48:59.162Z,1003.51
2022-09-06T11:49:59.627Z,1003.48
2022-09-06T11:50:59.374Z,1003.44
2022-09-06T11:51:59.495Z,1003.35
2022-09-06T11:52:59.760Z,1003.43
2022-09-06T11:53:58.631Z,1003.46
2022-09-06T11:54:58.886Z,1003.44
2022-09-06T11:55:59.214Z,1003.44
2022-09-06T11:56:59.547Z,1003.37
2022-09-06T11:57:58.696Z,1003.36
2022-09-06T11:58:58.924Z,1003.38
2022-09-06T11:59:58.606Z,1003.37
2022-09-06T12:00:58.745Z,1003.39
2022-09-06T12:01:58.869Z,1003.4
2022-09-06T12:05:02.677Z,1003.35
2022-09-06T12:05:58.504Z,1003.29
2022-09-06T12:06:58.100Z,1003.26
2022-09-06T12:07:58.573Z,1003.31
2022-09-06T12:08:58.672Z,1003.26
2022-09-06T12:09:58.095Z,1003.24
2022-09-06T12:10:58.518Z,1003.28
2022-09-06T12:11:58.647Z,1003.26
2022-09-06T12:12:58.589Z,1003.31
2022-09-06T12:13:58.577Z,1003.3
2022-09-06T12:14:58.948Z,1003.3
2022-09-06T12:15:59.252Z,1003.29
2022-09-06T12:16:58.459Z,1003.31
2022-09-06T12:17:58.565Z,1003.3
2022-09-06T12:18:58.863Z,1003.31
2022-09-06T12:19:58.085Z,1003.35
2022-09-06T12:20:58.562Z,1003.31
2022-09-06T12:21:58.634Z,1003.33
2022-09-06T12:22:58.954Z,1003.31
2022-09-06T12:23:58.124Z,1003.29
2022-09-06T12:24:58.705Z,1003.25
2022-09-06T12:25:58.529Z,1003.29
2022-09-06T12:26:59.325Z,1003.25
2022-09-06T12:27:58.121Z,1003.23
2022-09-06T12:28:58.122Z,1003.23
2022-09-06T12:29:58.137Z,1003.24
2022-09-06T12:30:58.141Z,1003.14